Latest Weather Observations for Woomera

IDS60801

Issued at 10:02 am CDT Friday 6 March 2015 (issued every 30 minutes, with the page automatically refreshed every 10 minutes)

About weather observations | Map of weather stations | Latest weather observations for SA | Other Formats
Station Details ID: 016001 Name: WOOMERA AERODROME Lat: -31.16 Lon: 136.81 Height: 166.6 m
Data from the previous 72 hours. | See also: Recent months at Woomera
Date/Time
CDT
Temp
°C
App
Temp
°C
Dew
Point
Rel
Hum
%
Delta-T
°C
Wind Press
QNH
hPa
Press
MSL
hPa
Rain
since 9 am
mm
Dir
 
Spd
km/h
Gust
km/h
Spd
kts
Gust
kts
06/10:00am 18.4 13.4 8.1 51 5.3 SSE 24 32 13 17 1020.2 - 0.0
06/09:30am 17.5 12.5 9.5 59 4.2 SSE 26 33 14 18 1019.8 - 0.0
06/09:00am 16.3 11.8 10.1 66 3.3 SSE 24 30 13 16 1020.0 1019.3 0.0
06/08:30am 15.2 11.7 10.3 72 2.6 SSE 19 26 10 14 1019.7 - 0.0
06/08:00am 13.9 11.8 9.9 77 2.1 S 11 15 6 8 1019.6 - 0.0
06/07:30am 13.1 11.3 9.6 79 1.8 S 9 13 5 7 1019.5 - 0.0
06/07:00am 13.3 11.1 9.4 77 2.0 S 11 17 6 9 1019.4 - 0.0
06/06:30am 13.4 9.7 9.3 76 2.1 S 19 22 10 12 1019.2 - 0.0
06/06:00am 14.0 10.8 10.0 77 2.1 S 17 22 9 12 1019.4 1018.7 0.0
06/05:30am 14.3 10.1 9.9 75 2.3 SSE 22 28 12 15 1019.2 - 0.0
06/05:00am 14.5 10.7 9.7 73 2.5 SSE 20 28 11 15 1019.3 - 0.0
06/04:30am 14.8 10.9 9.6 71 2.7 SSE 20 26 11 14 1019.3 - 0.0
06/04:00am 15.0 10.7 9.4 69 2.9 SSE 22 28 12 15 1019.2 - 0.0
06/03:30am 15.4 11.1 9.2 66 3.2 SSE 22 30 12 16 1019.4 - 0.0
06/03:00am 15.5 11.9 8.4 62 3.6 S 17 24 9 13 1019.9 1019.2 0.0
06/02:30am 16.0 11.6 7.4 56 4.3 SSE 20 28 11 15 1020.0 - 0.0
06/02:00am 16.5 11.6 6.8 52 4.8 SE 22 26 12 14 1020.3 - 0.0
06/01:30am 17.2 11.5 4.9 44 5.9 SE 24 30 13 16 1020.5 - 0.0
06/01:00am 17.7 12.6 3.0 37 6.8 SSE 19 26 10 14 1020.7 - 0.0
06/12:30am 18.2 13.0 2.6 35 7.2 SSE 19 26 10 14 1020.7 - 0.0
06/12:00am 18.9 14.2 3.1 35 7.4 SSE 17 22 9 12 1020.9 1020.2 0.0
 
Date/Time
CDT
Temp
°C
App
Temp
°C
Dew
Point
Rel
Hum
%
Delta-T
°C
Wind Press
QNH
hPa
Press
MSL
hPa
Rain
since 9 am
mm
Dir
 
Spd
km/h
Gust
km/h
Spd
kts
Gust
kts
05/11:30pm 19.8 14.1 3.0 33 7.9 SSE 22 28 12 15 1020.9 - 0.0
05/11:00pm 20.4 14.4 3.1 32 8.2 SSE 24 32 13 17 1020.8 - 0.0
05/10:30pm 21.0 15.2 2.5 29 8.7 SSE 22 33 12 18 1020.8 - 0.0
05/10:00pm 21.5 15.3 2.1 27 9.1 SSE 24 35 13 19 1020.6 - 0.0
05/09:30pm 21.5 16.1 1.4 26 9.3 S 19 26 10 14 1020.0 - 0.0
05/09:00pm 21.7 16.4 2.1 27 9.2 S 19 24 10 13 1019.6 1018.9 0.0
05/08:30pm 22.3 16.0 1.5 25 9.7 S 24 30 13 16 1019.3 - 0.0
05/08:00pm 22.8 16.6 2.1 25 9.8 SSE 24 33 13 18 1018.9 - 0.0
05/07:30pm 23.1 16.2 2.3 25 9.9 S 28 35 15 19 1018.9 - 0.0
05/07:00pm 23.5 16.1 2.1 24 10.2 S 30 37 16 20 1018.8 - 0.0
05/06:30pm 24.1 17.2 2.5 24 10.4 SSE 28 35 15 19 1018.7 - 0.0
05/06:00pm 24.8 17.7 3.8 25 10.4 SSE 30 39 16 21 1018.5 1017.8 0.0
05/05:30pm 25.8 19.6 2.4 22 11.4 S 24 30 13 16 1018.4 - 0.0
05/05:00pm 25.8 18.8 2.0 21 11.5 S 28 41 15 22 1018.4 - 0.0
05/04:30pm 26.4 18.6 1.4 19 12.0 SSE 32 41 17 22 1018.5 - 0.0
05/04:00pm 26.6 19.7 2.6 21 11.8 SSE 28 43 15 23 1018.6 - 0.0
05/03:30pm 25.7 18.4 2.5 22 11.3 SSE 30 39 16 21 1019.1 - 0.0
05/03:00pm 25.6 19.5 5.0 26 10.5 SSE 26 39 14 21 1019.4 1018.7 0.0
05/02:30pm 25.2 18.4 6.7 30 9.7 S 32 44 17 24 1019.6 - 0.0
05/02:00pm 25.1 19.2 7.6 32 9.3 SSE 28 44 15 24 1020.0 - 0.0
05/01:30pm 24.6 19.1 9.2 37 8.4 S 28 43 15 23 1020.5 - 0.0
05/01:00pm 22.9 18.9 10.4 45 6.9 S 22 35 12 19 1020.6 - 0.0
05/12:30pm 23.3 18.6 10.5 44 7.1 SSE 26 35 14 19 1021.0 - 0.0
05/12:00pm 22.2 17.6 11.1 49 6.2 SSE 26 37 14 20 1021.3 1020.6 0.0
05/11:30am 21.6 16.6 10.9 50 5.9 SSE 28 39 15 21 1021.3 - 0.0
05/11:00am 20.7 14.4 11.1 54 5.3 SSE 35 46 19 25 1021.4 - 0.0
05/10:30am 20.4 14.6 10.9 54 5.2 S 32 43 17 23 1021.7 - 0.0
05/10:00am 19.7 13.7 10.7 56 4.9 S 33 43 18 23 1021.7 - 0.0
05/09:30am 18.9 13.2 11.2 61 4.2 S 32 41 17 22 1021.7 - 0.0
05/09:00am 17.9 12.2 11.1 64 3.7 S 32 39 17 21 1021.6 1020.9 0.0
05/08:30am 17.9 11.5 10.7 62 3.9 S 35 44 19 24 1021.1 - 0.0
05/08:00am 17.8 12.2 10.1 60 4.1 S 30 41 16 22 1021.0 - 0.0
05/07:30am 17.6 12.7 9.9 60 4.1 S 26 33 14 18 1020.9 - 0.0
05/07:00am 17.4 12.1 9.9 61 4.0 S 28 43 15 23 1020.4 - 0.0
05/06:30am 17.3 12.0 9.7 61 4.0 S 28 37 15 20 1020.1 - 0.0
05/06:00am 17.3 11.1 9.3 59 4.2 S 32 41 17 22 1020.4 1019.7 0.0
05/05:30am 17.4 11.2 9.2 58 4.3 S 32 43 17 23 1019.9 - 0.0
05/05:00am 17.3 10.8 9.1 58 4.3 S 33 46 18 25 1019.7 - 0.0
05/04:30am 17.4 10.9 9.0 58 4.4 S 33 44 18 24 1019.9 - 0.0
05/04:00am 17.5 10.6 8.8 56 4.5 S 35 48 19 26 1019.8 - 0.0
05/03:30am 17.6 10.7 8.7 56 4.6 S 35 43 19 23 1020.1 - 0.0
05/03:00am 17.8 11.3 8.8 55 4.7 S 33 44 18 24 1020.1 1019.4 0.0
05/02:30am 18.1 10.8 8.9 55 4.8 S 37 52 20 28 1020.2 - 0.0
05/02:00am 18.9 11.2 8.8 52 5.3 S 39 52 21 28 1020.0 - 0.0
05/01:59am 18.9 11.2 8.8 52 5.3 S 39 52 21 28 1020.0 - 0.0
05/01:30am 20.0 15.5 10.0 52 5.4 S 24 32 13 17 1019.7 - 0.0
05/01:00am 20.7 16.5 9.8 49 5.9 SSE 22 30 12 16 1019.7 - 0.0
05/12:30am 21.3 16.6 9.4 46 6.4 SSE 24 32 13 17 1019.4 - 0.0
05/12:00am 22.1 17.7 9.1 43 7.0 SSE 22 30 12 16 1019.1 1018.4 0.0
 
Date/Time
CDT
Temp
°C
App
Temp
°C
Dew
Point
Rel
Hum
%
Delta-T
°C
Wind Press
QNH
hPa
Press
MSL
hPa
Rain
since 9 am
mm
Dir
 
Spd
km/h
Gust
km/h
Spd
kts
Gust
kts
04/11:30pm 22.7 17.2 9.2 42 7.3 SSE 28 37 15 20 1019.0 - 0.0
04/11:00pm 23.8 19.2 8.3 37 8.3 S 22 30 12 16 1018.8 - 0.0
04/10:52pm 24.0 18.0 7.0 33 8.9 S 28 46 15 25 1018.7 - 0.0
04/10:44pm 24.8 17.4 2.1 22 10.9 S 30 46 16 25 1018.7 - 0.0
04/10:30pm 24.7 18.2 0.4 20 11.3 SSW 24 28 13 15 1018.7 - 0.0
04/10:00pm 25.3 18.4 0.2 19 11.7 SSW 26 37 14 20 1018.5 - 0.0
04/09:30pm 25.9 18.1 -0.5 17 12.2 SSW 30 37 16 20 1018.0 - 0.0
04/09:00pm 26.4 19.1 -0.2 17 12.4 SW 28 39 15 21 1017.4 1016.7 0.0
04/08:30pm 26.3 20.6 -0.4 17 12.4 SW 19 24 10 13 1017.0 - 0.0
04/08:00pm 26.6 21.1 4.0 23 11.4 SW 22 28 12 15 1016.9 - 0.0
04/07:30pm 27.1 20.9 4.3 23 11.6 SW 26 35 14 19 1016.6 - 0.0
04/07:00pm 27.7 21.7 5.4 24 11.6 SSW 26 32 14 17 1016.6 - 0.0
04/06:30pm 27.9 21.7 4.2 22 12.1 SW 26 32 14 17 1016.5 - 0.0
04/06:00pm 28.6 22.8 4.2 21 12.5 SSW 24 32 13 17 1016.3 1015.6 0.0
04/05:30pm 28.2 22.7 4.1 21 12.3 SSW 22 30 12 16 1016.2 - 0.0
04/05:00pm 28.1 23.2 4.9 22 12.0 SSW 20 26 11 14 1016.3 - 0.0
04/04:30pm 28.1 22.5 5.2 23 11.9 SSW 24 35 13 19 1016.6 - 0.0
04/04:00pm 28.6 21.4 2.8 19 12.9 SSW 30 39 16 21 1016.6 - 0.0
04/03:30pm 27.5 21.2 3.7 21 12.0 SSW 26 37 14 20 1016.6 - 0.0
04/03:00pm 27.9 22.6 4.8 23 11.9 SSW 22 30 12 16 1016.7 1016.0 0.0
04/02:30pm 27.4 22.7 6.1 25 11.2 SSW 20 32 11 17 1017.0 - 0.0
04/02:00pm 26.8 21.9 6.8 28 10.6 S 22 30 12 16 1017.3 - 0.0
04/01:30pm 26.8 21.2 5.6 25 11.0 S 24 33 13 18 1017.5 - 0.0
04/01:00pm 26.1 20.7 6.5 28 10.3 S 24 35 13 19 1018.0 - 0.0
04/12:30pm 25.6 20.5 7.6 31 9.6 S 24 33 13 18 1018.3 - 0.0
04/12:00pm 24.4 20.6 8.9 37 8.4 SSE 19 26 10 14 1018.7 1018.0 0.0
04/11:30am 23.5 19.5 10.3 43 7.3 S 22 30 12 16 1018.7 - 0.0
04/11:00am 22.3 18.4 10.7 47 6.4 SSE 22 32 12 17 1018.8 - 0.0
04/10:30am 22.4 18.4 10.4 46 6.6 S 22 30 12 16 1018.4 - 0.0
04/10:00am 21.4 16.2 10.2 49 6.1 SSE 28 35 15 19 1018.1 - 0.0
04/09:30am 20.9 16.5 10.5 51 5.7 S 24 32 13 17 1018.1 - 0.0
04/09:00am 20.6 15.8 10.3 51 5.6 S 26 33 14 18 1017.8 1017.1 0.0
04/08:30am 20.4 15.2 10.3 52 5.5 S 28 33 15 18 1017.7 - 0.0
04/08:00am 20.3 15.1 10.2 52 5.5 S 28 37 15 20 1017.3 - 0.0
04/07:30am 20.2 15.4 10.3 53 5.4 S 26 33 14 18 1016.8 - 0.0
04/07:00am 20.4 15.3 10.7 53 5.3 S 28 35 15 19 1016.6 - 0.0
04/06:30am 20.6 16.4 11.2 55 5.2 S 24 32 13 17 1016.6 - 0.0
04/06:00am 20.7 16.9 11.3 55 5.2 S 22 32 12 17 1016.2 1015.5 0.0
04/05:30am 20.8 16.7 11.3 54 5.3 S 24 30 13 16 1016.1 - 0.0
04/05:00am 20.9 16.3 11.2 54 5.4 S 26 32 14 17 1016.1 - 0.0
04/04:30am 21.1 17.6 10.8 51 5.7 S 20 28 11 15 1016.2 - 0.0
04/04:00am 21.3 16.8 10.1 48 6.1 S 24 32 13 17 1016.0 - 0.0
04/03:30am 21.6 16.7 9.8 47 6.4 S 26 33 14 18 1015.8 - 0.0
04/03:00am 21.7 16.1 10.0 47 6.4 S 30 39 16 21 1015.9 1015.2 0.0
04/02:30am 21.8 15.6 10.1 47 6.4 S 33 43 18 23 1015.8 - 0.0
04/02:00am 22.3 16.7 10.1 46 6.7 S 30 41 16 22 1016.0 - 0.0
04/01:30am 23.3 17.5 9.3 41 7.6 SSE 30 41 16 22 1016.4 - 0.0
04/01:00am 24.7 19.6 9.1 37 8.5 SSE 26 35 14 19 1016.5 - 0.0
04/12:30am 25.5 21.5 9.1 35 9.0 SSE 20 26 11 14 1016.8 - 0.0
04/12:00am 26.2 21.4 7.5 30 10.0 SSE 22 26 12 14 1016.7 1016.0 0.0
 
Date/Time
CDT
Temp
°C
App
Temp
°C
Dew
Point
Rel
Hum
%
Delta-T
°C
Wind Press
QNH
hPa
Press
MSL
hPa
Rain
since 9 am
mm
Dir
 
Spd
km/h
Gust
km/h
Spd
kts
Gust
kts
03/11:30pm 27.1 22.9 7.3 28 10.6 SSE 19 28 10 15 1016.6 - 0.0
03/11:00pm 27.8 23.3 8.5 29 10.6 SSW 22 30 12 16 1016.6 - 0.0
03/10:30pm 28.1 23.6 8.4 29 10.8 SSW 22 26 12 14 1016.4 - 0.0
03/10:00pm 28.6 24.5 8.7 28 11.0 S 20 26 11 14 1015.9 - 0.0
03/09:30pm 29.1 25.2 8.7 28 11.3 SSW 19 22 10 12 1015.9 - 0.0
03/09:00pm 29.6 26.2 9.0 27 11.5 SSW 17 20 9 11 1015.6 1014.9 0.0
03/08:30pm 30.0 25.5 8.6 26 11.9 S 22 30 12 16 1015.2 - 0.0
03/08:00pm 30.2 26.1 8.7 26 12.0 S 20 26 11 14 1014.8 - 0.0
03/07:30pm 30.7 25.9 9.0 26 12.2 S 24 33 13 18 1014.6 - 0.0
03/07:00pm 31.2 27.3 8.7 24 12.6 S 19 26 10 14 1014.3 - 0.0
03/06:30pm 31.0 25.8 8.7 25 12.5 S 26 33 14 18 1014.1 - 0.0
03/06:00pm 31.8 27.0 8.7 24 13.0 S 24 32 13 17 1014.1 1013.4 0.0
03/05:30pm 31.2 25.8 8.2 24 12.8 SSW 26 35 14 19 1014.1 - 0.0
03/05:00pm 31.9 25.7 7.7 22 13.4 SSW 30 41 16 22 1013.8 - 0.0
03/04:30pm 33.2 26.9 7.4 20 14.3 S 30 41 16 22 1013.8 - 0.0
03/04:00pm 32.6 26.8 6.3 19 14.3 S 26 32 14 17 1014.0 - 0.0
03/03:30pm 33.0 27.2 4.4 16 15.1 SSW 24 35 13 19 1014.3 - 0.0
03/03:00pm 32.7 27.0 3.0 15 15.3 S 22 35 12 19 1014.4 1013.7 0.0
03/02:30pm 32.4 27.1 3.0 15 15.1 S 20 26 11 14 1014.5 - 0.0
03/02:00pm 32.9 27.4 1.9 14 15.7 S 20 26 11 14 1014.9 - 0.0
03/01:30pm 31.5 26.0 2.1 15 14.8 SSE 20 26 11 14 1015.2 - 0.0
03/01:00pm 31.1 26.2 4.9 19 13.8 SE 20 30 11 16 1015.6 - 0.0
03/12:30pm 29.6 24.2 4.5 20 13.0 SSE 22 30 12 16 1015.8 - 0.0
03/12:00pm 28.8 24.1 5.9 23 12.1 SSE 20 28 11 15 1016.4 1015.7 0.0
03/11:30am 27.8 22.9 6.8 26 11.2 SSE 22 33 12 18 1016.3 - 0.0
03/11:00am 26.3 21.1 7.4 30 10.1 SSE 24 32 13 17 1016.4 - 0.0
03/10:30am 25.9 20.7 8.9 34 9.3 SSE 26 35 14 19 1016.4 - 0.0

Other Formats:

Comma delimited format used in spreadsheet applications
http://www.bom.gov.au/fwo/IDS60801/IDS60801.94659.axf

JavaScript Object Notation format (JSON) in row-major order
http://www.bom.gov.au/fwo/IDS60801/IDS60801.94659.json